Time;durP1;ratioP1;P1;durP2;ratioP2;P2;SDS_P1;SDS_P2;PMS_P1;PMS_P2;Temp;Humidity;BMP_temperature;BMP_pressure;BME280_temperature;BME280_humidity;BME280_pressure;Samples;Min_cycle;Max_cycle;Signal;HPM_P1;HPM_P2
2022/06/13 00:01:21;1181046.00;3.94;2055.99;152454.00;0.51;264.04;;;;;22.30;1.00;;;;;;2289094;60;1129;-87
2022/06/13 00:03:49;1083400.00;3.61;1880.76;80942.00;0.27;140.66;;;;;22.50;1.00;;;;;;2289086;60;1074;-89
2022/06/13 00:06:17;1132290.00;3.77;1968.27;91461.00;0.30;158.83;;;;;22.60;1.00;;;;;;2289030;60;1416;-87
2022/06/13 00:08:45;918768.00;3.06;1589.11;50445.00;0.17;87.96;;;;;22.60;1.00;;;;;;2289056;60;1114;-89
2022/06/13 00:11:14;1433277.00;4.78;2518.19;166636.00;0.56;288.47;;;;;22.60;1.00;;;;;;2289023;60;1069;-88
2022/06/13 00:13:44;1525856.00;5.09;2691.87;174571.00;0.58;302.14;;;;;22.70;1.00;;;;;;2288988;60;1918;-87
2022/06/13 00:16:12;785853.00;2.62;1356.46;77206.00;0.26;134.21;;;;;22.50;1.00;;;;;;2288940;60;1405;-87
2022/06/13 00:18:39;928710.00;3.10;1606.60;80507.00;0.27;139.91;;;;;22.10;1.00;;;;;;2289036;60;1105;-87
2022/06/13 00:21:07;745635.00;2.49;1286.47;99382.00;0.33;172.51;;;;;21.90;1.90;;;;;;2288899;60;1171;-88
2022/06/13 00:23:37;736803.00;2.46;1271.12;69050.00;0.23;120.12;;;;;22.10;1.90;;;;;;2289015;60;1041;-88
2022/06/13 00:26:05;1228254.00;4.09;2141.39;153439.00;0.51;265.73;;;;;22.30;2.10;;;;;;2288673;60;1503;-88
2022/06/13 00:28:31;767465.00;2.56;1324.44;159868.00;0.53;276.81;;;;;22.20;1.00;;;;;;2288986;60;1038;-87
2022/06/13 00:30:58;458658.00;1.53;790.68;69705.00;0.23;121.25;;;;;22.30;1.00;;;;;;2288915;60;1688;-87
2022/06/13 00:33:25;187450.00;0.62;324.32;72747.00;0.24;126.51;;;;;22.30;1.00;;;;;;2288927;60;1911;-88
2022/06/13 00:35:53;195343.00;0.65;337.91;68816.00;0.23;119.71;;;;;22.40;1.00;;;;;;2288874;60;1728;-87
2022/06/13 00:38:20;191194.00;0.64;330.76;66043.00;0.22;114.92;;;;;22.40;1.00;;;;;;2289010;60;1044;-88
2022/06/13 00:40:48;317313.00;1.06;547.68;105528.00;0.35;183.11;;;;;22.20;1.00;;;;;;2288949;60;1046;-87
2022/06/13 00:43:16;439953.00;1.47;758.50;104085.00;0.35;180.62;;;;;22.30;1.00;;;;;;2288963;60;1121;-88
2022/06/13 00:45:44;219736.00;0.73;379.89;75852.00;0.25;131.87;;;;;22.20;1.00;;;;;;2288896;60;2040;-87
2022/06/13 00:48:13;182610.00;0.61;315.98;71969.00;0.24;125.16;;;;;22.10;1.00;;;;;;2288907;60;1126;-87
2022/06/13 00:50:47;264555.00;0.88;456.98;71836.00;0.24;124.93;;;;;22.00;1.10;;;;;;2288850;60;962;-87
2022/06/13 00:53:24;415395.00;1.38;716.27;141219.00;0.47;244.67;;;;;22.20;1.20;;;;;;2288920;60;1156;-87
2022/06/13 00:55:56;611318.00;2.04;1053.77;74058.00;0.25;128.77;;;;;22.30;1.00;;;;;;2288863;60;1470;-88
2022/06/13 00:58:25;811746.00;2.71;1401.62;97139.00;0.32;168.63;;;;;22.20;1.40;;;;;;2288812;60;1085;-87
2022/06/13 01:00:55;674671.00;2.25;1163.34;68050.00;0.23;118.39;;;;;22.20;2.10;;;;;;2288689;60;1113;-88
2022/06/13 01:03:23;768641.00;2.56;1326.49;120589.00;0.40;209.10;;;;;22.20;1.70;;;;;;2288808;60;1027;-87
2022/06/13 01:05:52;696029.00;2.32;1200.35;91523.00;0.31;158.94;;;;;22.40;2.10;;;;;;2288852;60;1389;-87
2022/06/13 01:08:25;1010200.00;3.37;1750.55;77419.00;0.26;134.58;;;;;22.50;1.40;;;;;;2288832;60;957;-88
2022/06/13 01:11:17;762908.00;2.54;1316.51;100943.00;0.34;175.20;;;;;22.60;1.30;;;;;;2288888;60;1073;-87
2022/06/13 01:14:16;541638.00;1.81;933.55;113701.00;0.38;197.22;;;;;22.60;1.00;;;;;;2288834;60;1985;-86
2022/06/13 01:16:55;286472.00;0.95;494.66;0.00;0.00;0.62;;;;;22.50;1.00;;;;;;2288701;60;1863;-87
2022/06/13 01:20:00;132331.00;0.44;229.35;0.00;0.00;0.62;;;;;22.50;1.00;;;;;;2288807;60;1040;-88
2022/06/13 01:22:58;288195.00;0.96;497.63;14953.00;0.05;26.53;;;;;22.50;1.10;;;;;;2288835;60;1030;-88
2022/06/13 01:25:46;154762.00;0.52;268.01;0.00;0.00;0.62;;;;;22.60;1.00;;;;;;2286698;60;1471;-87
2022/06/13 01:28:41;0.00;0.00;0.62;0.00;0.00;0.62;;;;;22.50;1.00;;;;;;2288813;60;1049;-87
2022/06/13 01:31:16;418489.00;1.39;721.59;0.00;0.00;0.62;;;;;22.40;1.60;;;;;;2288560;60;1109;-88
2022/06/13 01:33:55;590074.00;1.97;1017.08;68542.00;0.23;119.24;;;;;22.30;1.30;;;;;;2288647;60;1984;-87
2022/06/13 01:36:37;514974.00;1.72;887.61;86068.00;0.29;149.52;;;;;22.30;2.10;;;;;;2288774;60;1465;-88
2022/06/13 01:39:22;192508.00;0.64;333.03;0.00;0.00;0.62;;;;;22.50;1.60;;;;;;2288798;60;1105;-87
2022/06/13 01:42:04;0.00;0.00;0.62;0.00;0.00;0.62;;;;;22.50;1.00;;;;;;2288789;60;932;-87
2022/06/13 01:44:41;13155.00;0.04;23.41;0.00;0.00;0.62;;;;;22.60;1.00;;;;;;2288769;60;1076;-87
2022/06/13 01:47:19;37251.00;0.12;65.13;0.00;0.00;0.62;;;;;22.60;1.00;;;;;;2288602;60;1521;-88
2022/06/13 01:49:58;114162.00;0.38;198.01;0.00;0.00;0.62;;;;;22.70;1.00;;;;;;2288758;60;1129;-88
2022/06/13 01:52:33;26084.00;0.09;45.80;0.00;0.00;0.62;;;;;22.50;1.00;;;;;;2288705;60;1972;-87
2022/06/13 01:55:13;36211.00;0.12;63.33;0.00;0.00;0.62;;;;;22.50;1.00;;;;;;2288662;60;1921;-87
2022/06/13 01:57:46;32636.00;0.11;57.15;0.00;0.00;0.62;;;;;22.60;1.00;;;;;;2288648;60;1477;-89
2022/06/13 02:00:16;5290.00;0.02;9.79;0.00;0.00;0.62;;;;;22.60;1.00;;;;;;2288711;60;1054;-88
2022/06/13 02:02:52;176472.00;0.59;305.41;0.00;0.00;0.62;;;;;22.50;1.00;;;;;;2288695;60;1035;-87
2022/06/13 02:05:26;168554.00;0.56;291.78;0.00;0.00;0.62;;;;;22.40;1.00;;;;;;2288686;60;1106;-87
2022/06/13 02:07:59;306292.00;1.02;528.74;0.00;0.00;0.62;;;;;22.30;1.00;;;;;;2288697;60;1343;-88
2022/06/13 02:10:30;61431.00;0.20;106.95;0.00;0.00;0.62;;;;;22.30;1.00;;;;;;2288721;60;1335;-87
2022/06/13 02:13:04;161425.00;0.54;279.49;33758.00;0.11;59.09;;;;;22.30;1.00;;;;;;2288613;60;1105;-87
2022/06/13 02:15:38;0.00;0.00;0.62;0.00;0.00;0.62;;;;;21.90;1.00;;;;;;2288648;60;1907;-87
2022/06/13 02:18:13;157449.00;0.52;272.64;0.00;0.00;0.62;;;;;21.60;1.80;;;;;;2288595;60;932;-87
2022/06/13 02:20:44;41700.00;0.14;72.83;0.00;0.00;0.62;;;;;21.60;2.60;;;;;;2288594;60;1105;-88
2022/06/13 02:23:16;0.00;0.00;0.62;0.00;0.00;0.62;;;;;21.90;1.10;;;;;;2288662;60;1028;-87
2022/06/13 02:25:50;14692.00;0.05;26.08;0.00;0.00;0.62;;;;;21.90;1.00;;;;;;2288582;60;1464;-87
2022/06/13 02:28:22;0.00;0.00;0.62;0.00;0.00;0.62;;;;;22.00;1.00;;;;;;2288608;60;1172;-87
2022/06/13 02:30:52;0.00;0.00;0.62;0.00;0.00;0.62;;;;;22.00;1.00;;;;;;2288522;60;1055;-86
2022/06/13 02:33:27;79728.00;0.27;138.57;0.00;0.00;0.62;;;;;21.90;1.00;;;;;;2288618;60;1082;-88
2022/06/13 02:36:00;0.00;0.00;0.62;0.00;0.00;0.62;;;;;21.70;1.00;;;;;;2288616;60;1992;-88
2022/06/13 02:38:32;78393.00;0.26;136.26;7538.00;0.03;13.68;;;;;21.60;1.00;;;;;;2288483;60;1736;-88
2022/06/13 02:41:03;0.00;0.00;0.62;0.00;0.00;0.62;;;;;21.60;1.50;;;;;;2288661;60;1042;-88
2022/06/13 02:43:36;107789.00;0.36;187.01;0.00;0.00;0.62;;;;;21.70;1.00;;;;;;2288648;60;1059;-87
2022/06/13 02:46:10;164740.00;0.55;285.21;35109.00;0.12;61.43;;;;;21.70;1.00;;;;;;2288580;60;1358;-87
2022/06/13 02:48:44;304556.00;1.02;525.75;91429.00;0.30;158.78;;;;;21.30;2.70;;;;;;2288606;60;1111;-87
2022/06/13 02:51:21;0.00;0.00;0.62;0.00;0.00;0.62;;;;;21.50;1.40;;;;;;2288639;60;1021;-88
2022/06/13 02:53:55;0.00;0.00;0.62;0.00;0.00;0.62;;;;;21.70;1.80;;;;;;2288597;60;1058;-88
2022/06/13 02:56:31;19401.00;0.06;34.23;0.00;0.00;0.62;;;;;21.70;1.00;;;;;;2288545;60;2005;-87
2022/06/13 02:59:17;71512.00;0.24;124.37;0.00;0.00;0.62;;;;;21.70;1.00;;;;;;2288578;60;1117;-86
2022/06/13 03:01:48;0.00;0.00;0.62;0.00;0.00;0.62;;;;;21.80;1.00;;;;;;2288559;60;1555;-88
2022/06/13 03:04:27;54009.00;0.18;94.12;0.00;0.00;0.62;;;;;21.80;1.00;;;;;;2288587;60;1097;-87
2022/06/13 03:07:03;131061.00;0.44;227.16;0.00;0.00;0.62;;;;;21.70;1.00;;;;;;2288517;60;1474;-87
2022/06/13 03:09:37;25646.00;0.09;45.05;0.00;0.00;0.62;;;;;20.90;3.10;;;;;;2288483;60;1086;-87
2022/06/13 03:12:10;88540.00;0.30;153.79;0.00;0.00;0.62;;;;;20.70;4.70;;;;;;2288485;60;1104;-86
2022/06/13 03:14:56;0.00;0.00;0.62;0.00;0.00;0.62;;;;;20.60;5.20;;;;;;2288522;60;1910;-86
2022/06/13 03:17:28;0.00;0.00;0.62;0.00;0.00;0.62;;;;;20.40;6.50;;;;;;2288526;60;1390;-87
2022/06/13 03:20:08;20788.00;0.07;36.63;0.00;0.00;0.62;;;;;20.60;5.90;;;;;;2288519;60;1734;-86
2022/06/13 03:22:43;0.00;0.00;0.62;0.00;0.00;0.62;;;;;20.20;8.10;;;;;;2288520;60;1057;-87
2022/06/13 03:25:19;0.00;0.00;0.62;0.00;0.00;0.62;;;;;20.10;8.60;;;;;;2289123;60;1143;-87
2022/06/13 03:27:52;35192.00;0.12;61.57;0.00;0.00;0.62;;;;;20.60;6.60;;;;;;2289251;60;1343;-87
2022/06/13 03:30:22;0.00;0.00;0.62;0.00;0.00;0.62;;;;;20.80;5.70;;;;;;2289145;60;1137;-86
2022/06/13 03:35:44;0.00;0.00;0.62;0.00;0.00;0.62;;;;;20.90;5.90;;;;;;2289182;60;1981;-87
2022/06/13 03:38:16;0.00;0.00;0.62;0.00;0.00;0.62;;;;;20.60;6.70;;;;;;2289094;60;1898;-87
2022/06/13 03:40:49;28652.00;0.10;50.25;0.00;0.00;0.62;;;;;20.40;7.90;;;;;;2289114;60;1146;-87
2022/06/13 03:43:21;111247.00;0.37;192.98;0.00;0.00;0.62;;;;;20.50;8.30;;;;;;2289144;60;946;-86
2022/06/13 03:45:54;149085.00;0.50;258.23;42458.00;0.14;74.14;;;;;20.60;7.50;;;;;;2289001;60;2075;-88
2022/06/13 03:48:27;43477.00;0.14;75.90;0.00;0.00;0.62;;;;;20.90;6.80;;;;;;2289031;60;1002;-87
2022/06/13 03:51:02;84246.00;0.28;146.37;18135.00;0.06;32.04;;;;;21.30;5.50;;;;;;2289160;60;1108;-88
2022/06/13 03:53:37;75729.00;0.25;131.66;0.00;0.00;0.62;;;;;21.70;3.40;;;;;;2289109;60;1093;-87
2022/06/13 03:56:14;8079.00;0.03;14.62;0.00;0.00;0.62;;;;;21.80;2.80;;;;;;2289066;60;1915;-88
2022/06/13 03:58:46;0.00;0.00;0.62;0.00;0.00;0.62;;;;;21.90;2.50;;;;;;2289109;60;1085;-87
2022/06/13 04:01:18;29816.00;0.10;52.26;0.00;0.00;0.62;;;;;21.90;3.00;;;;;;2289134;60;1058;-87
2022/06/13 04:03:46;100484.00;0.33;174.41;32417.00;0.11;56.77;;;;;21.90;2.40;;;;;;2289116;60;1093;-87
2022/06/13 04:06:31;45565.00;0.15;79.52;0.00;0.00;0.62;;;;;22.10;1.60;;;;;;2289020;60;1626;-87
2022/06/13 04:09:00;212386.00;0.71;367.24;14470.00;0.05;25.69;;;;;22.20;1.40;;;;;;2288647;60;1021;-88
2022/06/13 04:11:43;79796.00;0.27;138.68;0.00;0.00;0.62;;;;;22.10;1.90;;;;;;2289079;60;1057;-86
2022/06/13 04:14:24;248518.00;0.83;429.40;72326.00;0.24;125.78;;;;;22.30;1.00;;;;;;2289067;60;1085;-87
2022/06/13 04:16:59;12853.00;0.04;22.89;0.00;0.00;0.62;;;;;22.20;1.00;;;;;;2289008;60;1368;-87
2022/06/13 04:19:51;23552.00;0.08;41.42;0.00;0.00;0.62;;;;;22.20;1.00;;;;;;2289063;60;1094;-86
2022/06/13 04:22:32;0.00;0.00;0.62;0.00;0.00;0.62;;;;;22.30;1.00;;;;;;2289021;60;1087;-87
2022/06/13 04:25:05;88938.00;0.30;154.47;0.00;0.00;0.62;;;;;22.30;1.00;;;;;;2289052;60;943;-86
2022/06/13 04:27:43;0.00;0.00;0.62;0.00;0.00;0.62;;;;;22.30;1.00;;;;;;2288980;60;1529;-88
2022/06/13 04:30:16;147939.00;0.49;256.26;0.00;0.00;0.62;;;;;22.30;1.00;;;;;;2288977;60;1019;-86
2022/06/13 04:32:51;0.00;0.00;0.62;0.00;0.00;0.62;;;;;22.60;1.00;;;;;;2289033;60;1050;-85
2022/06/13 04:35:19;35335.00;0.12;61.82;0.00;0.00;0.62;;;;;22.50;1.00;;;;;;2288787;60;1994;-87
2022/06/13 04:37:50;30441.00;0.10;53.35;0.00;0.00;0.62;;;;;22.70;1.00;;;;;;2288992;60;1381;-87
2022/06/13 04:40:22;34969.00;0.12;61.18;0.00;0.00;0.62;;;;;22.60;1.00;;;;;;2289008;60;1074;-87
2022/06/13 04:42:52;287862.00;0.96;497.05;118123.00;0.39;204.84;;;;;22.40;1.00;;;;;;2289045;60;965;-88
2022/06/13 04:45:24;88349.00;0.29;153.46;0.00;0.00;0.62;;;;;22.30;1.00;;;;;;2288936;60;1002;-88
2022/06/13 04:47:54;328321.00;1.09;566.60;37471.00;0.12;65.51;;;;;22.60;1.00;;;;;;2288974;60;1362;-88
2022/06/13 04:50:29;17630.00;0.06;31.17;0.00;0.00;0.62;;;;;22.40;1.00;;;;;;2288933;60;1032;-87
2022/06/13 04:53:01;4119.00;0.01;7.76;0.00;0.00;0.62;;;;;22.30;1.00;;;;;;2288973;60;1106;-87
2022/06/13 04:55:33;0.00;0.00;0.62;0.00;0.00;0.62;;;;;22.50;1.00;;;;;;2288882;60;1978;-86
2022/06/13 04:58:00;481283.00;1.60;829.61;216489.00;0.72;374.30;;;;;22.90;1.00;;;;;;2288883;60;1082;-88
2022/06/13 05:00:32;235616.00;0.79;407.21;0.00;0.00;0.62;;;;;23.10;1.00;;;;;;2288888;60;1011;-89
2022/06/13 05:02:59;46440.00;0.15;81.03;0.00;0.00;0.62;;;;;23.10;1.00;;;;;;2288942;60;951;-86
2022/06/13 05:05:36;0.00;0.00;0.62;0.00;0.00;0.62;;;;;23.20;1.00;;;;;;2288891;60;1085;-88
2022/06/13 05:08:13;38902.00;0.13;67.99;0.00;0.00;0.62;;;;;23.40;1.00;;;;;;2288755;60;1152;-88
2022/06/13 05:10:45;67389.00;0.22;117.25;0.00;0.00;0.62;;;;;23.10;1.00;;;;;;2288852;60;1086;-87
2022/06/13 05:13:12;19769.00;0.07;34.87;0.00;0.00;0.62;;;;;23.10;1.00;;;;;;2288817;60;1105;-88
2022/06/13 05:15:39;86279.00;0.29;149.88;0.00;0.00;0.62;;;;;23.30;1.00;;;;;;2288793;60;1915;-88
2022/06/13 05:18:29;6244.00;0.02;11.44;0.00;0.00;0.62;;;;;23.30;1.00;;;;;;2288860;60;1083;-87
2022/06/13 05:21:17;53957.00;0.18;94.03;0.00;0.00;0.62;;;;;23.30;1.00;;;;;;2288867;60;1066;-88
2022/06/13 05:24:26;76727.00;0.26;133.38;0.00;0.00;0.62;;;;;23.40;1.00;;;;;;2288647;60;1704;-88
2022/06/13 05:26:53;234189.00;0.78;404.76;74071.00;0.25;128.79;;;;;23.50;1.00;;;;;;2288699;60;1455;-87
2022/06/13 05:29:20;59125.00;0.20;102.96;0.00;0.00;0.62;;;;;23.40;1.00;;;;;;2288651;60;1112;-87
2022/06/13 05:31:47;495810.00;1.65;854.61;84093.00;0.28;146.11;;;;;23.40;1.00;;;;;;2288791;60;934;-89
2022/06/13 05:34:23;63030.00;0.21;109.71;0.00;0.00;0.62;;;;;23.30;1.00;;;;;;2288716;60;1117;-88
2022/06/13 05:36:50;91532.00;0.31;158.95;16361.00;0.05;28.97;;;;;23.50;1.00;;;;;;2288708;60;1920;-88
2022/06/13 05:39:19;205962.00;0.69;356.19;17704.00;0.06;31.29;;;;;23.50;1.00;;;;;;2288803;60;929;-91
2022/06/13 05:41:46;0.00;0.00;0.62;0.00;0.00;0.62;;;;;24.40;1.00;;;;;;2288794;60;1109;-87
2022/06/13 05:44:13;8605.00;0.03;15.53;0.00;0.00;0.62;;;;;25.90;1.00;;;;;;2288785;60;1078;-86
2022/06/13 05:46:40;41018.00;0.14;71.65;0.00;0.00;0.62;;;;;27.30;1.00;;;;;;2288720;60;1375;-87
2022/06/13 05:49:08;111770.00;0.37;193.88;0.00;0.00;0.62;;;;;27.90;1.00;;;;;;2288822;60;1587;-88
2022/06/13 05:51:35;0.00;0.00;0.62;0.00;0.00;0.62;;;;;28.90;1.00;;;;;;2288699;60;1063;-90
2022/06/13 05:54:02;172470.00;0.57;298.52;0.00;0.00;0.62;;;;;29.70;1.00;;;;;;2288775;60;1021;-88
2022/06/13 05:56:31;74026.00;0.25;128.72;0.00;0.00;0.62;;;;;30.60;1.00;;;;;;2288627;60;1992;-89
2022/06/13 05:58:57;76470.00;0.25;132.94;0.00;0.00;0.62;;;;;30.90;1.00;;;;;;2288648;60;1042;-88
2022/06/13 06:01:24;55169.00;0.18;96.12;0.00;0.00;0.62;;;;;31.50;1.00;;;;;;2288655;60;1141;-88
2022/06/13 06:03:51;37819.00;0.13;66.11;0.00;0.00;0.62;;;;;32.20;1.00;;;;;;2288694;60;2190;-88
2022/06/13 06:06:22;0.00;0.00;0.62;0.00;0.00;0.62;;;;;32.80;1.00;;;;;;2288558;60;1406;-87
2022/06/13 06:08:50;268446.00;0.89;463.67;94512.00;0.32;164.10;;;;;33.30;1.00;;;;;;2288696;60;1085;-89
2022/06/13 06:11:17;155660.00;0.52;269.56;0.00;0.00;0.62;;;;;33.80;1.00;;;;;;2288615;60;1530;-88
2022/06/13 06:13:45;34038.00;0.11;59.57;0.00;0.00;0.62;;;;;34.00;1.00;;;;;;2288689;60;1125;-89
2022/06/13 06:16:16;28105.00;0.09;49.30;0.00;0.00;0.62;;;;;33.50;1.00;;;;;;2288575;60;1995;-89
2022/06/13 06:18:43;10136.00;0.03;18.18;0.00;0.00;0.62;;;;;34.10;1.00;;;;;;2288629;60;1121;-88
2022/06/13 06:21:10;65186.00;0.22;113.44;0.00;0.00;0.62;;;;;34.40;1.00;;;;;;2288618;60;949;-87
2022/06/13 06:23:37;0.00;0.00;0.62;0.00;0.00;0.62;;;;;34.60;1.00;;;;;;2288623;60;1089;-87
2022/06/13 06:26:05;96681.00;0.32;167.84;0.00;0.00;0.62;;;;;35.00;1.00;;;;;;2288225;60;1279;-87
2022/06/13 06:28:33;0.00;0.00;0.62;0.00;0.00;0.62;;;;;35.30;1.00;;;;;;2288376;60;1535;-87
2022/06/13 06:31:03;0.00;0.00;0.62;0.00;0.00;0.62;;;;;35.10;1.00;;;;;;2288506;60;1108;-87
2022/06/13 06:33:30;28582.00;0.10;50.13;0.00;0.00;0.62;;;;;35.10;1.00;;;;;;2288489;60;1154;-87
2022/06/13 06:35:57;0.00;0.00;0.62;0.00;0.00;0.62;;;;;35.00;1.00;;;;;;2288553;60;2001;-86
2022/06/13 06:38:26;47374.00;0.16;82.64;0.00;0.00;0.62;;;;;35.00;1.00;;;;;;2288626;60;1601;-88
2022/06/13 06:40:54;371661.00;1.24;641.09;44054.00;0.15;76.90;;;;;34.80;1.00;;;;;;2288545;60;1142;-88
2022/06/13 06:43:21;0.00;0.00;0.62;0.00;0.00;0.62;;;;;35.50;1.00;;;;;;2288510;60;1074;-87
2022/06/13 06:45:48;130327.00;0.43;225.89;0.00;0.00;0.62;;;;;35.80;1.00;;;;;;2288494;60;1295;-85
2022/06/13 06:48:18;38579.00;0.13;67.43;0.00;0.00;0.62;;;;;36.00;1.00;;;;;;2288578;60;1058;-86
2022/06/13 06:50:48;13393.00;0.04;23.83;0.00;0.00;0.62;;;;;36.10;1.00;;;;;;2288629;60;1011;-86
2022/06/13 06:53:17;126606.00;0.42;219.48;58405.00;0.19;101.72;;;;;35.50;1.00;;;;;;2288557;60;1034;-86
2022/06/13 07:01:13;100499.00;0.33;174.43;0.00;0.00;0.62;;;;;36.70;1.00;;;;;;2282680;60;897;-84
2022/06/13 07:03:42;119767792.00;399.23;69594064.00;119553968.00;398.51;69221632.00;;;;;37.00;1.00;;;;;;2289191;60;1783;-86
2022/06/13 07:06:10;49676.00;0.17;86.63;0.00;0.00;0.62;;;;;36.70;1.00;;;;;;2289175;60;1726;-87
2022/06/13 07:08:37;254575.00;0.85;439.82;45111.00;0.15;78.73;;;;;35.80;1.00;;;;;;2289174;60;1118;-86
2022/06/13 07:13:52;342842.00;1.14;591.56;17102.00;0.06;30.25;;;;;35.80;1.00;;;;;;2289277;60;606;-86
2022/06/13 07:16:19;0.00;0.00;0.62;0.00;0.00;0.62;;;;;35.50;1.00;;;;;;2289087;60;1992;-85
2022/06/13 07:18:47;69354.00;0.23;120.64;0.00;0.00;0.62;;;;;35.40;1.00;;;;;;2289179;60;1100;-86
2022/06/13 07:21:15;35887.00;0.12;62.77;0.00;0.00;0.62;;;;;36.00;1.00;;;;;;2289103;60;1112;-86
2022/06/13 07:23:42;115922.00;0.39;201.05;0.00;0.00;0.62;;;;;36.10;1.00;;;;;;2289150;60;1027;-87
2022/06/13 07:26:10;84630.00;0.28;147.03;0.00;0.00;0.62;;;;;36.00;1.00;;;;;;2289143;60;1320;-87
2022/06/13 07:28:37;17774.00;0.06;31.42;0.00;0.00;0.62;;;;;36.40;1.00;;;;;;2289139;60;1109;-86
2022/06/13 07:31:04;107655.00;0.36;186.78;0.00;0.00;0.62;;;;;37.00;1.00;;;;;;2289107;60;1089;-87
2022/06/13 07:33:31;5883.00;0.02;10.82;0.00;0.00;0.62;;;;;37.00;1.00;;;;;;2289146;60;1095;-86
2022/06/13 07:35:59;28215.00;0.09;49.49;0.00;0.00;0.62;;;;;36.80;1.00;;;;;;2289048;60;1987;-86
2022/06/13 07:38:26;34580.00;0.12;60.51;0.00;0.00;0.62;;;;;36.40;1.00;;;;;;2289084;60;1032;-87
2022/06/13 07:41:00;81252.00;0.27;141.20;0.00;0.00;0.62;;;;;36.40;1.00;;;;;;2289077;60;2170;-87
2022/06/13 07:43:31;70886.00;0.24;123.29;0.00;0.00;0.62;;;;;36.50;1.00;;;;;;2289108;60;1081;-87
2022/06/13 07:45:59;6610.00;0.02;12.08;0.00;0.00;0.62;;;;;37.00;1.00;;;;;;2289017;60;1556;-87
2022/06/13 07:48:27;0.00;0.00;0.62;0.00;0.00;0.62;;;;;35.50;1.00;;;;;;2289077;60;1168;-86
2022/06/13 07:50:55;128035.00;0.43;221.94;63294.00;0.21;110.17;;;;;35.00;1.00;;;;;;2289127;60;1176;-87
2022/06/13 07:53:24;38683.00;0.13;67.61;0.00;0.00;0.62;;;;;35.30;1.00;;;;;;2289066;60;1078;-88
2022/06/13 07:55:51;0.00;0.00;0.62;0.00;0.00;0.62;;;;;36.00;1.00;;;;;;2289003;60;1996;-87
2022/06/13 07:58:20;91071.00;0.30;158.16;0.00;0.00;0.62;;;;;35.20;1.00;;;;;;2289052;60;1179;-88
2022/06/13 08:00:49;113508.00;0.38;196.88;0.00;0.00;0.62;;;;;35.30;1.00;;;;;;2289076;60;1135;-86
2022/06/13 08:03:19;231100.00;0.77;399.44;73109.00;0.24;127.13;;;;;35.50;1.00;;;;;;2289027;60;1038;-88
2022/06/13 08:05:46;146254.00;0.49;253.35;0.00;0.00;0.62;;;;;35.80;1.00;;;;;;2289042;60;1291;-87
2022/06/13 08:08:14;14109.00;0.05;25.07;0.00;0.00;0.62;;;;;35.40;1.00;;;;;;2288930;60;1135;-88
2022/06/13 08:10:42;281209.00;0.94;485.62;101451.00;0.34;176.08;;;;;35.80;1.00;;;;;;2288985;60;1124;-87
2022/06/13 08:13:12;672358.00;2.24;1159.34;160500.00;0.54;277.90;;;;;35.50;1.00;;;;;;2288993;60;1139;-89
2022/06/13 08:15:39;26889.00;0.09;47.20;0.00;0.00;0.62;;;;;35.20;1.00;;;;;;2288907;60;1292;-88
2022/06/13 08:18:07;100586.00;0.34;174.58;21109.00;0.07;37.19;;;;;35.30;1.00;;;;;;2288881;60;931;-88
2022/06/13 08:20:34;394868.00;1.32;680.98;123236.00;0.41;213.66;;;;;35.10;1.00;;;;;;2288961;60;937;-87
2022/06/13 08:23:03;43047.00;0.14;75.16;0.00;0.00;0.62;;;;;35.60;1.00;;;;;;2288921;60;1026;-86
2022/06/13 08:25:32;0.00;0.00;0.62;0.00;0.00;0.62;;;;;35.30;1.00;;;;;;2288942;60;1612;-86
2022/06/13 08:28:01;252632.00;0.84;436.48;0.00;0.00;0.62;;;;;35.30;1.00;;;;;;2288907;60;1320;-88
2022/06/13 08:30:34;69739.00;0.23;121.31;0.00;0.00;0.62;;;;;35.20;1.00;;;;;;2288819;60;1033;-88
2022/06/13 08:33:01;0.00;0.00;0.62;0.00;0.00;0.62;;;;;35.00;1.00;;;;;;2288900;60;1097;-88
2022/06/13 08:35:28;206352.00;0.69;356.86;35229.00;0.12;61.63;;;;;35.60;1.00;;;;;;2288874;60;1101;-87
2022/06/13 08:37:55;97248.00;0.32;168.82;0.00;0.00;0.62;;;;;35.80;1.00;;;;;;2288917;60;2030;-87
2022/06/13 08:40:22;26141.00;0.09;45.90;0.00;0.00;0.62;;;;;34.00;1.00;;;;;;2288904;60;1081;-86
2022/06/13 08:42:58;155889.00;0.52;269.96;0.00;0.00;0.62;;;;;34.00;1.00;;;;;;2288865;60;1015;-88
2022/06/13 08:45:35;29686.00;0.10;52.04;0.00;0.00;0.62;;;;;33.80;1.00;;;;;;2288907;60;1121;-88
2022/06/13 08:48:08;190765.00;0.64;330.03;32793.00;0.11;57.42;;;;;33.40;1.00;;;;;;2288972;60;974;-89
2022/06/13 08:50:43;0.00;0.00;0.62;0.00;0.00;0.62;;;;;33.30;1.00;;;;;;2288977;60;1023;-87
2022/06/13 08:53:19;128686.00;0.43;223.06;43614.00;0.15;76.14;;;;;32.40;1.00;;;;;;2288855;60;1076;-87
2022/06/13 08:55:49;0.00;0.00;0.62;0.00;0.00;0.62;;;;;32.30;1.00;;;;;;2288929;60;1385;-88
2022/06/13 08:58:24;863665.00;2.88;1492.39;182863.00;0.61;316.42;;;;;31.50;1.00;;;;;;2288893;60;2041;-87
2022/06/13 09:00:58;93291.00;0.31;161.99;0.00;0.00;0.62;;;;;29.80;1.00;;;;;;2288954;60;1072;-88
2022/06/13 09:03:32;88708.00;0.30;154.08;0.00;0.00;0.62;;;;;28.90;1.00;;;;;;2288927;60;1504;-89
2022/06/13 09:06:05;226585.00;0.76;391.67;17183.00;0.06;30.39;;;;;29.70;1.00;;;;;;2288771;60;1435;-88
2022/06/13 09:08:42;957336.00;3.19;1657.05;181387.00;0.60;313.88;;;;;30.90;1.00;;;;;;2288888;60;1125;-89
2022/06/13 09:11:17;223595.00;0.75;386.53;31583.00;0.11;55.32;;;;;31.10;1.00;;;;;;2288805;60;1089;-89
2022/06/13 09:13:52;0.00;0.00;0.62;0.00;0.00;0.62;;;;;31.10;1.00;;;;;;2288944;60;968;-89
2022/06/13 09:16:28;211132.00;0.70;365.08;0.00;0.00;0.62;;;;;30.00;1.00;;;;;;2288804;60;2013;-87
2022/06/13 09:19:02;291829.00;0.97;503.87;47875.00;0.16;83.51;;;;;29.30;1.00;;;;;;2288788;60;1055;-88
2022/06/13 09:21:39;93365.00;0.31;162.12;0.00;0.00;0.62;;;;;29.40;1.00;;;;;;2288684;60;1229;-87
2022/06/13 09:24:15;227554.00;0.76;393.34;0.00;0.00;0.62;;;;;29.40;1.00;;;;;;2288745;60;2236;-88
2022/06/13 09:26:47;35919.00;0.12;62.83;0.00;0.00;0.62;;;;;29.60;1.00;;;;;;2288805;60;1456;-88
2022/06/13 09:29:22;146898.00;0.49;254.46;0.00;0.00;0.62;;;;;29.20;1.00;;;;;;2288768;60;1638;-87
2022/06/13 09:31:58;131590.00;0.44;228.07;32979.00;0.11;57.74;;;;;29.20;1.00;;;;;;2288816;60;1462;-89
2022/06/13 09:34:35;19988.00;0.07;35.25;0.00;0.00;0.62;;;;;28.80;1.00;;;;;;2288846;60;1006;-89
2022/06/13 09:37:09;33868.00;0.11;59.28;0.00;0.00;0.62;;;;;28.90;1.00;;;;;;2288744;60;2009;-87
2022/06/13 09:39:37;75611.00;0.25;131.46;0.00;0.00;0.62;;;;;28.70;1.00;;;;;;2288692;60;1110;-88
2022/06/13 09:42:29;161875.00;0.54;280.27;62907.00;0.21;109.50;;;;;28.90;1.00;;;;;;2288738;60;987;-87
2022/06/13 09:45:10;282648.00;0.94;488.09;12265.00;0.04;21.87;;;;;28.40;1.00;;;;;;2288781;60;1123;-88
2022/06/13 09:47:48;238595.00;0.80;412.33;55098.00;0.18;96.00;;;;;28.50;1.00;;;;;;2288758;60;1472;-88
2022/06/13 09:50:24;238615.00;0.80;412.37;0.00;0.00;0.62;;;;;28.50;1.00;;;;;;2288787;60;998;-88
2022/06/13 09:53:01;269973.00;0.90;466.30;86294.00;0.29;149.91;;;;;28.40;1.00;;;;;;2288668;60;1082;-87
2022/06/13 09:55:36;0.00;0.00;0.62;0.00;0.00;0.62;;;;;29.10;1.00;;;;;;2288729;60;1040;-87
2022/06/13 09:58:15;84977.00;0.28;147.63;0.00;0.00;0.62;;;;;29.30;1.00;;;;;;2288615;60;1909;-88
2022/06/13 10:00:52;214637.00;0.72;371.12;38767.00;0.13;67.76;;;;;29.20;1.00;;;;;;2288682;60;1518;-88
2022/06/13 10:03:31;99847.00;0.33;173.31;0.00;0.00;0.62;;;;;28.80;1.00;;;;;;2288766;60;1101;-87
2022/06/13 10:06:08;37712.00;0.13;65.93;0.00;0.00;0.62;;;;;29.00;1.00;;;;;;2288662;60;1520;-86
2022/06/13 10:08:50;183151.00;0.61;316.92;0.00;0.00;0.62;;;;;27.40;1.00;;;;;;2288758;60;1028;-88
2022/06/13 10:11:28;94750.00;0.32;164.51;0.00;0.00;0.62;;;;;27.10;1.00;;;;;;2288610;60;1017;-87
2022/06/13 10:14:20;106327.00;0.35;184.49;40134.00;0.13;70.12;;;;;26.90;1.00;;;;;;2288587;60;1046;-85
2022/06/13 10:16:59;50776.00;0.17;88.53;0.00;0.00;0.62;;;;;27.40;1.00;;;;;;2288539;60;2009;-86
2022/06/13 10:19:38;987373.00;3.29;1710.12;0.00;0.00;0.62;;;;;27.70;1.00;;;;;;2288127;60;1088;-86
2022/06/13 10:22:12;934303.00;3.11;1616.45;80410.00;0.27;139.75;;;;;28.00;1.00;;;;;;2288568;60;1103;-87
2022/06/13 10:24:54;212186.00;0.71;366.90;0.00;0.00;0.62;;;;;28.30;1.00;;;;;;2288620;60;1031;-86
2022/06/13 10:27:33;28661.00;0.10;50.27;0.00;0.00;0.62;;;;;28.10;1.00;;;;;;2288283;60;1381;-86
2022/06/13 10:30:18;549153.00;1.83;946.50;99315.00;0.33;172.39;;;;;28.20;1.00;;;;;;2288197;60;1413;-87
2022/06/13 10:33:13;62635.00;0.21;109.03;0.00;0.00;0.62;;;;;28.40;1.00;;;;;;2284284;60;1208;-86